createdAt,value
2016-08-11T06:27:31.025Z,20.21
2016-08-11T06:28:31.327Z,20.16
2016-08-11T06:29:29.517Z,20.17
2016-08-11T06:30:30.223Z,20.2
2016-08-11T06:31:30.229Z,19.96
2016-08-11T06:32:30.225Z,18.92
2016-08-11T06:33:30.226Z,18.05
2016-08-11T06:34:29.569Z,17.56
2016-08-11T06:35:30.934Z,17.81
2016-08-11T06:36:30.943Z,17.82
2016-08-11T06:37:31.377Z,17.54
2016-08-11T06:38:30.227Z,17.26
2016-08-11T06:39:30.938Z,17.44
2016-08-11T06:40:30.937Z,17.51
2016-08-11T06:41:30.953Z,18.05
2016-08-11T06:42:29.523Z,17.84
2016-08-11T06:43:30.525Z,17.96
2016-08-11T06:44:29.521Z,18.23
2016-08-11T06:45:30.944Z,16.88
2016-08-11T06:46:30.228Z,17.49
2016-08-11T06:47:30.941Z,17.54
2016-08-11T06:48:29.524Z,17.92
2016-08-11T06:49:30.950Z,18.69
2016-08-11T06:50:30.940Z,19.08
2016-08-11T06:51:30.940Z,19.39
2016-08-11T06:52:30.235Z,19.58
2016-08-11T06:53:30.944Z,19.8
2016-08-11T06:54:45.669Z,19.87
2016-08-11T06:55:30.296Z,19.81
2016-08-11T06:56:30.248Z,19.76
2016-08-11T06:57:30.248Z,19.14
2016-08-11T06:58:30.966Z,19.18
2016-08-11T06:59:30.965Z,18.76
2016-08-11T07:00:30.312Z,18.7
2016-08-11T07:01:30.263Z,18.51
2016-08-11T07:02:30.971Z,18.08
2016-08-11T07:03:30.268Z,18.54
2016-08-11T07:04:29.566Z,18.78
2016-08-11T07:05:31.372Z,18.42
2016-08-11T07:06:29.566Z,18.65
2016-08-11T07:07:31.026Z,18.62
2016-08-11T07:08:30.983Z,18.41
2016-08-11T07:09:30.985Z,17.79
2016-08-11T07:10:30.282Z,17.77
2016-08-11T07:11:30.281Z,18.08
2016-08-11T07:13:41.363Z,19.62
2016-08-11T07:14:30.339Z,19.33
2016-08-11T07:15:31.143Z,18.08
2016-08-11T07:16:32.112Z,18.32
2016-08-11T07:17:30.295Z,18.54
2016-08-11T07:18:30.900Z,18.57
2016-08-11T07:19:29.582Z,18.27
2016-08-11T07:20:29.588Z,18.54
2016-08-11T07:21:30.997Z,17.96
2016-08-11T07:22:30.295Z,17.01
2016-08-11T07:23:29.586Z,16.82
2016-08-11T07:24:30.291Z,16.97
2016-08-11T07:25:31.003Z,16.27
2016-08-11T07:26:30.296Z,16.39
2016-08-11T07:27:29.932Z,17.16
2016-08-11T07:28:29.583Z,17.56
2016-08-11T07:29:29.669Z,17.59
2016-08-11T07:30:31.000Z,17.01
2016-08-11T07:31:30.293Z,17.46
2016-08-11T07:32:29.582Z,17.36
2016-08-11T07:33:30.996Z,17.49
2016-08-11T07:34:30.293Z,17.08
2016-08-11T07:35:30.999Z,17.26
2016-08-11T07:36:30.288Z,17.95
2016-08-11T07:37:31.001Z,18.57
2016-08-11T07:38:31.090Z,18.58
2016-08-11T07:39:29.581Z,17.74
2016-08-11T07:40:30.084Z,17.56
2016-08-11T07:41:31.003Z,18.5
2016-08-11T07:42:30.295Z,18.57
2016-08-11T07:43:31.131Z,18.87
2016-08-11T07:44:29.623Z,19.4
2016-08-11T07:45:30.417Z,18.99
2016-08-11T07:46:30.293Z,18.78
2016-08-11T07:47:31.003Z,18.87
2016-08-11T07:48:30.361Z,18.9
2016-08-11T07:49:29.599Z,19.23
2016-08-11T07:50:31.005Z,19.4
2016-08-11T07:51:31.163Z,19.51
2016-08-11T07:52:30.307Z,19.23
2016-08-11T07:53:30.387Z,19.44
2016-08-11T07:54:31.021Z,19.63
2016-08-11T07:55:30.316Z,19.66
2016-08-11T07:56:30.318Z,19.22
2016-08-11T07:57:31.027Z,18.6
2016-08-11T07:58:30.327Z,18.25
2016-08-11T07:59:29.650Z,18.7
2016-08-11T08:00:32.088Z,19.26
2016-08-11T08:01:30.327Z,18.85
2016-08-11T08:02:31.034Z,19.14
2016-08-11T08:03:29.627Z,19.32
2016-08-11T08:04:30.345Z,19.48
2016-08-11T08:05:31.048Z,19.22
2016-08-11T08:06:30.349Z,18.63
2016-08-11T08:07:31.053Z,19.06
2016-08-11T08:08:30.349Z,19.21
2016-08-11T08:09:30.349Z,19.02
2016-08-11T08:10:30.686Z,18.25
2016-08-11T08:11:31.592Z,18.57
2016-08-11T08:12:30.360Z,18.98
2016-08-11T08:13:31.465Z,18.98
2016-08-11T08:15:31.123Z,19.16
2016-08-11T08:16:30.420Z,18.81
2016-08-11T08:17:30.369Z,18.87
2016-08-11T08:18:30.425Z,19.08
2016-08-11T08:19:29.668Z,19.28
2016-08-11T08:20:31.090Z,18.99
2016-08-11T08:21:31.085Z,19.26
2016-08-11T08:22:32.066Z,19.02
2016-08-11T08:23:30.390Z,18.9
2016-08-11T08:24:32.123Z,18.82
2016-08-11T08:25:30.388Z,19.07
2016-08-11T08:26:30.400Z,19.4
2016-08-11T08:27:30.396Z,19.22
2016-08-11T08:28:31.110Z,19.22
2016-08-11T08:30:31.120Z,18.62
2016-08-11T08:31:29.700Z,18.52
2016-08-11T08:32:30.463Z,18.65
2016-08-11T08:33:30.816Z,18.73
2016-08-11T08:34:30.415Z,19.23
2016-08-11T08:35:31.125Z,19.16
2016-08-11T08:36:31.127Z,18.84
2016-08-11T08:37:30.424Z,18.99
2016-08-11T08:38:30.423Z,19.21
2016-08-11T08:39:29.717Z,19
2016-08-11T08:40:29.719Z,19.23
2016-08-11T08:41:30.434Z,19.48
2016-08-11T08:42:31.157Z,19.39
2016-08-11T08:43:29.729Z,19.06
2016-08-11T08:45:29.778Z,19.36
2016-08-11T08:46:30.436Z,19.16
2016-08-11T08:47:30.446Z,18.99
2016-08-11T08:48:30.444Z,18.99
2016-08-11T08:49:31.152Z,19.25
2016-08-11T08:50:29.741Z,18.88
2016-08-11T08:51:29.749Z,19
2016-08-11T08:52:30.459Z,19.28
2016-08-11T08:53:31.163Z,19.43
2016-08-11T08:54:30.459Z,19.06
2016-08-11T08:55:31.959Z,18.99
2016-08-11T08:56:31.178Z,18.87
2016-08-11T08:57:31.626Z,19.22
2016-08-11T08:58:30.519Z,19.23
2016-08-11T09:00:29.815Z,19.66
2016-08-11T09:01:30.481Z,19.44
2016-08-11T09:02:31.188Z,19.1
2016-08-11T09:03:30.492Z,19.14
2016-08-11T09:04:31.200Z,19.25
2016-08-11T09:05:29.796Z,19.62
2016-08-11T09:06:32.472Z,19.74
2016-08-11T09:07:29.786Z,19.62
2016-08-11T09:08:31.212Z,19.63
2016-08-11T09:09:30.498Z,19.61
2016-08-11T09:10:31.212Z,19.66
2016-08-11T09:11:31.276Z,19.22
2016-08-11T09:12:31.219Z,19.4
2016-08-11T09:13:31.221Z,19.58
2016-08-11T09:15:31.127Z,19.16
2016-08-11T09:16:29.815Z,19.54
2016-08-11T09:17:31.284Z,19.73
2016-08-11T09:18:31.315Z,19.61
2016-08-11T09:19:31.915Z,19.95
2016-08-11T09:20:29.826Z,19.99
2016-08-11T09:21:30.539Z,20.23
2016-08-11T09:22:30.545Z,19.68
2016-08-11T09:23:30.545Z,20.1
2016-08-11T09:24:29.842Z,20.24
2016-08-11T09:25:31.268Z,20.32
2016-08-11T09:26:32.183Z,20.39
2016-08-11T09:27:30.565Z,20.38
2016-08-11T09:28:31.270Z,20.51
2016-08-11T09:30:31.273Z,20.64
2016-08-11T09:31:31.286Z,20.48
2016-08-11T09:32:29.890Z,20.55
2016-08-11T09:33:30.589Z,20.62
2016-08-11T09:34:29.888Z,20.67
2016-08-11T09:35:30.600Z,20.66
2016-08-11T09:36:30.607Z,20.59
2016-08-11T09:37:31.337Z,20.62
2016-08-11T09:38:29.912Z,20.72
2016-08-11T09:39:31.329Z,20.61
2016-08-11T09:40:30.626Z,20.61
2016-08-11T09:41:32.000Z,20.66
2016-08-11T09:42:31.346Z,20.67
2016-08-11T09:43:30.643Z,20.73
2016-08-11T09:45:31.361Z,20.76
2016-08-11T09:46:30.659Z,20.76
2016-08-11T09:47:31.374Z,20.73
2016-08-11T09:48:30.666Z,20.73
2016-08-11T09:49:30.676Z,20.73
2016-08-11T09:50:30.681Z,20.73
2016-08-11T09:51:31.392Z,20.72
2016-08-11T09:52:31.307Z,20.72
2016-08-11T09:53:30.001Z,20.76
2016-08-11T09:54:30.705Z,20.79
2016-08-11T09:55:30.711Z,20.73
2016-08-11T09:56:30.717Z,20.72
2016-08-11T09:57:31.476Z,20.77
2016-08-11T09:58:30.721Z,20.73
2016-08-11T10:00:30.030Z,20.77
2016-08-11T10:01:32.226Z,20.72
2016-08-11T10:02:30.750Z,20.7
2016-08-11T10:03:31.564Z,20.74
2016-08-11T10:04:31.530Z,20.82
2016-08-11T10:05:30.766Z,20.77
2016-08-11T10:06:31.477Z,20.85
2016-08-11T10:07:30.779Z,20.84
2016-08-11T10:08:30.780Z,20.87
2016-08-11T10:09:30.137Z,20.84
2016-08-11T10:10:30.794Z,20.82
2016-08-11T10:11:30.095Z,20.72
2016-08-11T10:12:31.756Z,20.85
2016-08-11T10:13:31.570Z,20.89
2016-08-11T10:15:31.678Z,20.84
2016-08-11T10:16:30.839Z,20.84
2016-08-11T10:17:31.590Z,20.82
2016-08-11T10:18:30.839Z,20.88
2016-08-11T10:19:31.553Z,20.87
2016-08-11T10:20:30.864Z,20.84
2016-08-11T10:21:31.560Z,20.85
2016-08-11T10:22:31.613Z,20.85
2016-08-11T10:23:31.575Z,20.88
2016-08-11T10:24:31.574Z,20.88
2016-08-11T10:25:31.236Z,20.88
2016-08-11T10:26:31.643Z,20.92
2016-08-11T10:27:32.822Z,20.94
2016-08-11T10:28:30.891Z,20.94
2016-08-11T10:29:31.501Z,20.95
2016-08-11T10:30:30.905Z,20.85
2016-08-11T10:31:30.202Z,20.92
2016-08-11T10:32:30.261Z,20.97
2016-08-11T10:33:31.678Z,20.91
2016-08-11T10:34:30.926Z,20.92
2016-08-11T10:35:31.643Z,20.91
2016-08-11T10:36:31.692Z,20.91
2016-08-11T10:37:31.650Z,20.89
2016-08-11T10:38:30.948Z,20.92
2016-08-11T10:39:30.250Z,20.88
2016-08-11T10:40:31.718Z,20.95
2016-08-11T10:41:31.675Z,20.89
2016-08-11T10:42:31.679Z,20.89
2016-08-11T10:43:30.977Z,20.92
2016-08-11T10:44:31.690Z,20.89
2016-08-11T10:45:31.038Z,21.04
2016-08-11T10:46:30.289Z,21.01
2016-08-11T10:47:31.551Z,21.04
2016-08-11T10:48:31.720Z,21.03
2016-08-11T10:49:32.884Z,21.04
2016-08-11T10:50:31.723Z,21.07
2016-08-11T10:51:31.024Z,21.06
2016-08-11T10:52:31.736Z,21.14
2016-08-11T10:53:30.325Z,21.12
2016-08-11T10:54:30.343Z,21.04
2016-08-11T10:55:31.753Z,21.09
2016-08-11T10:56:31.050Z,21.07
2016-08-11T10:57:31.761Z,21.12
2016-08-11T10:58:31.068Z,21.06
2016-08-11T10:59:31.087Z,21.09
2016-08-11T11:00:31.074Z,21.09
2016-08-11T11:01:31.853Z,21.13
2016-08-11T11:02:31.793Z,21.19
2016-08-11T11:03:31.104Z,21.12
2016-08-11T11:04:30.398Z,21.13
2016-08-11T11:05:31.255Z,21.12
2016-08-11T11:06:30.399Z,21.09
2016-08-11T11:07:31.116Z,21.09
2016-08-11T11:08:30.411Z,21.07
2016-08-11T11:09:31.124Z,21.09
2016-08-11T11:10:31.136Z,21.09
2016-08-11T11:11:32.465Z,21.12
2016-08-11T11:12:31.144Z,21.13
2016-08-11T11:14:30.451Z,21.17
2016-08-11T11:15:30.502Z,21.22
2016-08-11T11:16:31.218Z,21.17
2016-08-11T11:17:31.878Z,21.19
2016-08-11T11:18:31.995Z,21.13
2016-08-11T11:19:31.184Z,21.28
2016-08-11T11:20:31.897Z,21.28
2016-08-11T11:21:31.901Z,21.31
2016-08-11T11:22:32.006Z,21.34
2016-08-11T11:23:31.205Z,21.25
2016-08-11T11:24:31.918Z,21.24
2016-08-11T11:25:31.925Z,21.28
2016-08-11T11:26:31.930Z,21.27
2016-08-11T11:27:31.948Z,21.29
2016-08-11T11:28:31.232Z,21.16
2016-08-11T11:29:31.247Z,21.27
2016-08-11T11:30:32.011Z,21.25
2016-08-11T11:31:31.959Z,21.21
2016-08-11T11:32:31.963Z,21.22
2016-08-11T11:33:32.821Z,21.25
2016-08-11T11:34:31.285Z,21.22
2016-08-11T11:35:31.276Z,21.22
2016-08-11T11:36:30.569Z,21.22
2016-08-11T11:37:31.283Z,21.19
2016-08-11T11:38:31.999Z,21.19
2016-08-11T11:39:31.298Z,21.1
2016-08-11T11:40:31.306Z,21.19
2016-08-11T11:41:31.313Z,21.19
2016-08-11T11:42:31.319Z,21.14
2016-08-11T11:43:31.368Z,21.17
2016-08-11T11:44:31.524Z,21.21
2016-08-11T11:45:30.624Z,21.16
2016-08-11T11:46:31.339Z,21.14
2016-08-11T11:47:31.393Z,21.17
2016-08-11T11:48:32.056Z,21.19
2016-08-11T11:49:31.353Z,21.17
2016-08-11T11:50:31.366Z,21.1
2016-08-11T11:51:31.363Z,21.09
2016-08-11T11:52:31.370Z,21.1
2016-08-11T11:53:31.380Z,21.07
2016-08-11T11:54:31.382Z,21.1
2016-08-11T11:55:31.760Z,21.07
2016-08-11T11:56:31.390Z,21.04
2016-08-11T11:57:33.030Z,21.04
2016-08-11T11:58:32.110Z,21.17
2016-08-11T11:59:31.509Z,21.17
2016-08-11T12:00:31.415Z,21.25
2016-08-11T12:01:31.758Z,21.22
2016-08-11T12:02:31.435Z,21.17
2016-08-11T12:03:31.431Z,21.17
2016-08-11T12:04:32.143Z,21.24
2016-08-11T12:05:31.443Z,21.24
2016-08-11T12:06:31.446Z,21.25
2016-08-11T12:07:32.208Z,21.28
2016-08-11T12:08:33.318Z,21.28
2016-08-11T12:09:30.759Z,21.25
2016-08-11T12:10:31.872Z,21.27
2016-08-11T12:11:32.183Z,21.29
2016-08-11T12:12:30.773Z,21.31
2016-08-11T12:14:31.487Z,21.32
2016-08-11T12:15:31.546Z,21.29
2016-08-11T12:16:32.215Z,21.22
2016-08-11T12:17:32.216Z,21.35
2016-08-11T12:18:32.270Z,21.35
2016-08-11T12:19:30.863Z,21.38
2016-08-11T12:20:32.234Z,21.46
2016-08-11T12:21:32.636Z,21.5
2016-08-11T12:22:32.294Z,21.52
2016-08-11T12:23:32.255Z,21.5
2016-08-11T12:24:31.598Z,21.49
2016-08-11T12:25:32.261Z,21.65
2016-08-11T12:26:31.560Z,21.5
2016-08-11T12:27:32.279Z,21.43
2016-08-11T12:28:32.289Z,21.52
2016-08-11T12:29:32.329Z,21.62
2016-08-11T12:30:30.897Z,21.64
2016-08-11T12:31:31.662Z,21.65
2016-08-11T12:32:31.588Z,21.68
2016-08-11T12:33:31.599Z,21.68
2016-08-11T12:34:32.970Z,21.62
2016-08-11T12:35:30.908Z,21.65
2016-08-11T12:36:31.617Z,21.61
2016-08-11T12:37:32.457Z,21.53
2016-08-11T12:38:31.856Z,21.59
2016-08-11T12:39:31.653Z,21.56
2016-08-11T12:40:31.654Z,21.54
2016-08-11T12:41:33.346Z,21.54
2016-08-11T12:42:31.734Z,21.5
2016-08-11T12:43:31.708Z,21.5
2016-08-11T12:44:32.370Z,21.52
2016-08-11T12:45:32.468Z,21.54
2016-08-11T12:46:31.801Z,21.44
2016-08-11T12:47:31.680Z,21.43
2016-08-11T12:48:32.632Z,21.35
2016-08-11T12:49:31.104Z,21.47
2016-08-11T12:50:32.486Z,21.29
2016-08-11T12:51:31.045Z,21.28
2016-08-11T12:52:31.809Z,21.19
2016-08-11T12:53:32.430Z,21.25
2016-08-11T12:54:33.401Z,21.24
2016-08-11T12:55:31.724Z,21.21
2016-08-11T12:56:32.882Z,21.07
2016-08-11T12:57:31.032Z,21.09
2016-08-11T12:58:31.739Z,21.07
2016-08-11T12:59:31.043Z,21.09
2016-08-11T13:00:31.077Z,21.19
2016-08-11T13:01:32.464Z,21.25
2016-08-11T13:02:32.470Z,21.27
2016-08-11T13:03:32.485Z,21.38
2016-08-11T13:04:32.489Z,21.37
2016-08-11T13:05:31.081Z,21.37
2016-08-11T13:06:31.844Z,21.42
2016-08-11T13:07:32.950Z,21.5
2016-08-11T13:08:31.816Z,21.53
2016-08-11T13:09:31.096Z,21.54
2016-08-11T13:10:31.869Z,21.52
2016-08-11T13:11:31.861Z,21.53
2016-08-11T13:12:31.895Z,21.64
2016-08-11T13:13:50.424Z,21.52
2016-08-11T13:14:31.128Z,21.58
2016-08-11T13:15:31.157Z,21.5
2016-08-11T13:16:31.185Z,21.38
2016-08-11T13:17:31.847Z,21.37
2016-08-11T13:18:33.308Z,21.38
2016-08-11T13:19:32.616Z,21.44
2016-08-11T13:20:32.636Z,21.42
2016-08-11T13:21:32.577Z,21.53
2016-08-11T13:22:32.587Z,21.54
2016-08-11T13:23:32.592Z,21.46
2016-08-11T13:24:32.595Z,21.53
2016-08-11T13:25:31.907Z,21.54
2016-08-11T13:26:31.896Z,21.56
2016-08-11T13:27:32.928Z,21.54
2016-08-11T13:28:31.917Z,21.54
2016-08-11T13:29:32.967Z,21.5
2016-08-11T13:30:31.936Z,21.44
2016-08-11T13:31:33.497Z,21.42
2016-08-11T13:32:32.640Z,21.4
2016-08-11T13:33:31.782Z,21.4
2016-08-11T13:34:31.943Z,21.54
2016-08-11T13:35:32.662Z,21.54
2016-08-11T13:36:32.666Z,21.52
2016-08-11T13:37:32.673Z,21.49
2016-08-11T13:38:31.964Z,21.5
2016-08-11T13:39:31.969Z,21.56
2016-08-11T13:40:32.733Z,21.56
2016-08-11T13:41:32.694Z,21.54
2016-08-11T13:42:32.697Z,21.58
2016-08-11T13:43:31.992Z,21.53
2016-08-11T13:44:32.709Z,21.61
2016-08-11T13:46:32.723Z,21.49
2016-08-11T13:47:31.363Z,21.61
2016-08-11T13:48:32.731Z,21.61
2016-08-11T13:49:32.027Z,21.68
2016-08-11T13:50:32.842Z,21.65
2016-08-11T13:51:32.899Z,21.62
2016-08-11T13:52:32.046Z,21.56
2016-08-11T13:53:33.628Z,21.5
2016-08-11T13:54:32.060Z,21.58
2016-08-11T13:55:32.771Z,21.56
2016-08-11T13:56:32.825Z,21.49
2016-08-11T13:57:32.071Z,21.53
2016-08-11T13:58:32.793Z,21.54
2016-08-11T13:59:31.377Z,21.54
2016-08-11T14:01:32.874Z,21.47
2016-08-11T14:02:33.408Z,21.52
2016-08-11T14:03:32.108Z,21.54
2016-08-11T14:04:33.990Z,21.46
2016-08-11T14:05:31.412Z,21.5
2016-08-11T14:06:32.123Z,21.46
2016-08-11T14:07:31.435Z,21.52
2016-08-11T14:08:31.427Z,21.43
2016-08-11T14:09:32.137Z,21.46
2016-08-11T14:10:32.200Z,21.5
2016-08-11T14:11:32.303Z,21.58
2016-08-11T14:12:31.453Z,21.56
2016-08-11T14:13:32.214Z,21.52
2016-08-11T14:14:32.874Z,21.54
2016-08-11T14:16:32.179Z,21.61
2016-08-11T14:17:32.895Z,21.54
2016-08-11T14:18:32.908Z,21.5
2016-08-11T14:19:32.246Z,21.49
2016-08-11T14:20:31.493Z,21.5
2016-08-11T14:21:32.262Z,21.5
2016-08-11T14:22:32.262Z,21.67
2016-08-11T14:23:32.223Z,21.64
2016-08-11T14:24:31.717Z,21.53
2016-08-11T14:25:33.538Z,21.52
2016-08-11T14:26:33.747Z,21.5
2016-08-11T14:27:32.998Z,21.53
2016-08-11T14:28:32.902Z,21.49
2016-08-11T14:29:32.253Z,21.56
2016-08-11T14:31:32.271Z,21.53
2016-08-11T14:32:32.296Z,21.59
2016-08-11T14:33:32.290Z,21.5
2016-08-11T14:34:33.036Z,21.49
2016-08-11T14:35:33.001Z,21.54
2016-08-11T14:36:32.291Z,21.47
2016-08-11T14:37:32.296Z,21.56
2016-08-11T14:38:31.594Z,21.65
2016-08-11T14:39:32.871Z,21.67
2016-08-11T14:40:32.318Z,21.52
2016-08-11T14:41:32.323Z,21.53
2016-08-11T14:42:32.324Z,21.56
2016-08-11T14:43:32.328Z,21.53
2016-08-11T14:44:32.337Z,21.49
2016-08-11T14:46:33.054Z,21.54
2016-08-11T14:47:32.353Z,21.58
2016-08-11T14:48:33.792Z,21.58
2016-08-11T14:49:31.664Z,21.44
2016-08-11T14:50:33.089Z,21.53
2016-08-11T14:51:33.082Z,21.56
2016-08-11T14:52:33.089Z,21.49
2016-08-11T14:53:31.688Z,21.53
2016-08-11T14:54:31.680Z,21.69
2016-08-11T14:55:32.398Z,21.61
2016-08-11T14:56:32.404Z,21.59
2016-08-11T14:57:33.122Z,21.65
2016-08-11T14:58:32.412Z,21.62
2016-08-11T14:59:33.062Z,21.68
2016-08-11T15:00:31.719Z,21.59
2016-08-11T15:01:32.479Z,21.61
2016-08-11T15:02:31.783Z,21.64
2016-08-11T15:03:33.806Z,21.61
2016-08-11T15:04:33.158Z,21.61
2016-08-11T15:05:31.745Z,21.58
2016-08-11T15:06:33.167Z,21.56
2016-08-11T15:07:32.472Z,21.58
2016-08-11T15:08:33.179Z,21.67
2016-08-11T15:09:33.185Z,21.64
2016-08-11T15:10:34.142Z,21.61
2016-08-11T15:11:32.489Z,21.62
2016-08-11T15:12:33.203Z,21.68
2016-08-11T15:13:33.687Z,21.64
2016-08-11T15:14:33.096Z,21.58
2016-08-11T15:15:32.512Z,21.44
2016-08-11T15:16:33.237Z,21.37
2016-08-11T15:17:31.815Z,21.46
2016-08-11T15:18:32.526Z,21.62
2016-08-11T15:19:32.565Z,21.62
2016-08-11T15:20:32.538Z,21.75
2016-08-11T15:21:32.561Z,21.67
2016-08-11T15:22:33.302Z,21.71
2016-08-11T15:23:32.558Z,21.64
2016-08-11T15:24:33.268Z,21.65
2016-08-11T15:25:33.885Z,21.75
2016-08-11T15:26:32.577Z,21.64
2016-08-11T15:27:32.582Z,21.67
2016-08-11T15:28:33.297Z,21.72
2016-08-11T15:29:33.301Z,21.67
2016-08-11T15:30:32.597Z,21.62
2016-08-11T15:31:32.604Z,21.71
2016-08-11T15:32:32.614Z,21.64
2016-08-11T15:33:33.369Z,21.68
2016-08-11T15:34:35.255Z,21.77
2016-08-11T15:35:31.929Z,21.77
2016-08-11T15:36:33.598Z,21.75
2016-08-11T15:37:31.995Z,21.77
2016-08-11T15:38:32.637Z,21.75
2016-08-11T15:39:32.648Z,21.74
2016-08-11T15:40:33.364Z,21.88
2016-08-11T15:41:32.660Z,21.82
2016-08-11T15:42:32.715Z,21.84
2016-08-11T15:43:32.670Z,21.91
2016-08-11T15:44:33.390Z,21.9
2016-08-11T15:45:33.388Z,21.79
2016-08-11T15:46:33.444Z,21.86
2016-08-11T15:47:33.894Z,21.94
2016-08-11T15:48:31.986Z,21.94
2016-08-11T15:49:31.994Z,21.91
2016-08-11T15:50:32.710Z,22.05
2016-08-11T15:51:32.709Z,22.06
2016-08-11T15:52:33.429Z,22.03
2016-08-11T15:53:32.723Z,22.09
2016-08-11T15:54:32.740Z,22.07
2016-08-11T15:55:32.731Z,22.09
2016-08-11T15:56:32.282Z,22
2016-08-11T15:57:33.452Z,22.09
2016-08-11T15:58:34.364Z,22.07
2016-08-11T15:59:33.528Z,22.03
2016-08-11T16:00:32.826Z,22.06
2016-08-11T16:01:32.775Z,22.12
2016-08-11T16:02:32.775Z,21.98
2016-08-11T16:03:33.486Z,21.91
2016-08-11T16:04:33.492Z,21.99
2016-08-11T16:05:32.790Z,21.86
2016-08-11T16:06:32.793Z,21.86
2016-08-11T16:07:32.903Z,21.91
2016-08-11T16:08:32.808Z,21.91
2016-08-11T16:09:32.824Z,21.91
2016-08-11T16:10:32.817Z,21.88
2016-08-11T16:11:33.533Z,21.83
2016-08-11T16:12:33.537Z,21.88
2016-08-11T16:13:59.272Z,21.83
2016-08-11T16:14:32.839Z,21.84
2016-08-11T16:15:32.896Z,21.84
2016-08-11T16:16:33.562Z,21.98
2016-08-11T16:17:32.861Z,21.91
2016-08-11T16:18:32.864Z,21.86
2016-08-11T16:19:33.578Z,21.94
2016-08-11T16:20:32.170Z,21.86
2016-08-11T16:21:32.180Z,21.91
2016-08-11T16:22:32.982Z,21.91
2016-08-11T16:23:33.650Z,21.96
2016-08-11T16:24:32.897Z,21.84
2016-08-11T16:25:34.403Z,21.9
2016-08-11T16:26:33.618Z,21.96
2016-08-11T16:27:32.931Z,21.98
2016-08-11T16:28:32.215Z,21.92
2016-08-11T16:29:32.927Z,21.94
2016-08-11T16:30:32.933Z,21.98
2016-08-11T16:31:34.076Z,21.94
2016-08-11T16:32:32.246Z,21.92
2016-08-11T16:33:33.656Z,21.82
2016-08-11T16:34:32.958Z,21.84
2016-08-11T16:35:33.670Z,21.88
2016-08-11T16:36:32.967Z,21.88
2016-08-11T16:37:32.975Z,21.84
2016-08-11T16:38:32.982Z,21.82
2016-08-11T16:39:32.983Z,21.74
2016-08-11T16:40:33.702Z,21.74
2016-08-11T16:41:32.996Z,21.75
2016-08-11T16:42:34.203Z,21.74
2016-08-11T16:44:33.515Z,21.72
2016-08-11T16:45:33.064Z,21.65
2016-08-11T16:46:33.029Z,21.67
2016-08-11T16:47:32.342Z,21.67
2016-08-11T16:48:32.328Z,21.64
2016-08-11T16:49:33.088Z,21.62
2016-08-11T16:50:32.344Z,21.69
2016-08-11T16:51:33.928Z,21.69
2016-08-11T16:52:33.056Z,21.61
2016-08-11T16:53:33.067Z,21.65
2016-08-11T16:54:33.071Z,21.69
2016-08-11T16:55:33.689Z,21.77
2016-08-11T16:56:33.086Z,21.8
2016-08-11T16:57:33.087Z,21.82
2016-08-11T16:58:33.091Z,21.84
2016-08-11T16:59:33.098Z,21.84
2016-08-11T17:00:33.811Z,21.86
2016-08-11T17:01:33.118Z,21.75
2016-08-11T17:02:33.826Z,21.94
2016-08-11T17:03:33.826Z,21.99
2016-08-11T17:04:33.833Z,21.82
2016-08-11T17:05:33.280Z,21.75
2016-08-11T17:06:34.393Z,21.68
2016-08-11T17:07:33.141Z,21.68
2016-08-11T17:08:33.168Z,21.64
2016-08-11T17:09:33.159Z,21.64
2016-08-11T17:10:33.157Z,21.62
2016-08-11T17:11:33.871Z,21.61
2016-08-11T17:12:33.171Z,21.79
2016-08-11T17:13:34.218Z,21.64
2016-08-11T17:14:33.893Z,21.67
2016-08-11T17:15:32.531Z,21.72
2016-08-11T17:16:33.915Z,21.61
2016-08-11T17:17:33.249Z,21.67
2016-08-11T17:18:33.201Z,21.71
2016-08-11T17:19:33.215Z,21.77
2016-08-11T17:20:32.556Z,21.79
2016-08-11T17:21:33.220Z,21.64
2016-08-11T17:22:33.940Z,21.64
2016-08-11T17:23:33.945Z,21.62
2016-08-11T17:24:33.994Z,21.64
2016-08-11T17:25:34.005Z,21.59
2016-08-11T17:26:33.351Z,21.62
2016-08-11T17:27:33.959Z,21.61
2016-08-11T17:28:33.302Z,21.64
2016-08-11T17:29:33.267Z,21.61
2016-08-11T17:30:34.620Z,21.62
2016-08-11T17:31:32.585Z,21.61
2016-08-11T17:32:33.290Z,21.64
2016-08-11T17:33:34.002Z,21.64
2016-08-11T17:34:34.002Z,21.54
2016-08-11T17:35:34.009Z,21.64
2016-08-11T17:36:33.304Z,21.67
2016-08-11T17:37:34.020Z,21.72
2016-08-11T17:38:32.623Z,21.68
2016-08-11T17:39:33.475Z,21.75
2016-08-11T17:40:33.336Z,21.74
2016-08-11T17:41:34.869Z,21.68
2016-08-11T17:42:32.639Z,21.68
2016-08-11T17:43:33.395Z,21.71
2016-08-11T17:44:34.063Z,21.74
2016-08-11T17:45:33.423Z,21.69
2016-08-11T17:46:34.123Z,21.65
2016-08-11T17:47:33.368Z,21.69
2016-08-11T17:48:32.668Z,21.65
2016-08-11T17:49:33.395Z,21.62
2016-08-11T17:50:32.678Z,21.64
2016-08-11T17:51:34.095Z,21.65
2016-08-11T17:52:34.252Z,21.61
2016-08-11T17:53:34.111Z,21.61
2016-08-11T17:54:32.747Z,21.54
2016-08-11T17:55:34.120Z,21.64
2016-08-11T17:56:33.418Z,21.52
2016-08-11T17:57:33.425Z,21.68
2016-08-11T17:58:33.431Z,21.62
2016-08-11T17:59:32.727Z,21.62
2016-08-11T18:00:33.445Z,21.59
2016-08-11T18:02:33.452Z,21.75
2016-08-11T18:03:34.216Z,21.62
2016-08-11T18:04:34.172Z,21.52
2016-08-11T18:05:33.469Z,21.59
2016-08-11T18:06:33.486Z,21.53
2016-08-11T18:07:33.486Z,21.5
2016-08-11T18:08:32.777Z,21.44
2016-08-11T18:09:34.199Z,21.44
2016-08-11T18:10:33.495Z,21.43
2016-08-11T18:11:33.501Z,21.34
2016-08-11T18:12:34.220Z,21.35
2016-08-11T18:13:33.512Z,21.38
2016-08-11T18:14:34.274Z,21.43
2016-08-11T18:15:34.286Z,21.37
2016-08-11T18:17:32.829Z,21.44
2016-08-11T18:18:32.840Z,21.46
2016-08-11T18:19:33.545Z,21.37
2016-08-11T18:20:34.261Z,21.47
2016-08-11T18:21:34.265Z,21.42
2016-08-11T18:22:33.564Z,21.44
2016-08-11T18:23:33.211Z,21.37
2016-08-11T18:24:33.575Z,21.53
2016-08-11T18:25:34.287Z,21.61
2016-08-11T18:26:32.930Z,21.64
2016-08-11T18:27:34.281Z,21.62
2016-08-11T18:28:34.307Z,21.62
2016-08-11T18:29:34.307Z,21.64
2016-08-11T18:30:34.317Z,21.59
2016-08-11T18:32:33.619Z,21.5
2016-08-11T18:33:33.625Z,21.54
2016-08-11T18:34:33.680Z,21.54
2016-08-11T18:35:34.344Z,21.54
2016-08-11T18:36:33.644Z,21.61
2016-08-11T18:37:33.648Z,21.58
2016-08-11T18:38:34.752Z,21.49
2016-08-11T18:39:33.666Z,21.47
2016-08-11T18:40:36.107Z,21.54
2016-08-11T18:41:32.966Z,21.5
2016-08-11T18:42:33.675Z,21.46
2016-08-11T18:44:33.693Z,21.54
2016-08-11T18:45:34.401Z,21.49
2016-08-11T18:46:33.700Z,21.54
2016-08-11T18:47:34.413Z,21.53
2016-08-11T18:48:33.709Z,21.54
2016-08-11T18:49:34.870Z,21.5
2016-08-11T18:50:33.027Z,21.54
2016-08-11T18:51:33.369Z,21.56
2016-08-11T18:52:34.489Z,21.56
2016-08-11T18:53:33.031Z,21.49
2016-08-11T18:54:34.450Z,21.56
2016-08-11T18:55:34.454Z,21.53
2016-08-11T18:56:33.761Z,21.49
2016-08-11T18:57:33.808Z,21.5
2016-08-11T18:58:34.473Z,21.53
2016-08-11T18:59:34.478Z,21.53
2016-08-11T19:00:34.230Z,21.56
2016-08-11T19:02:33.787Z,21.52
2016-08-11T19:03:34.501Z,21.56
2016-08-11T19:04:33.795Z,21.62
2016-08-11T19:05:33.805Z,21.71
2016-08-11T19:06:33.808Z,21.58
2016-08-11T19:07:33.814Z,21.65
2016-08-11T19:08:34.527Z,21.61
2016-08-11T19:09:33.826Z,21.62
2016-08-11T19:10:33.832Z,21.61
2016-08-11T19:11:33.830Z,21.62
2016-08-11T19:12:33.134Z,21.59
2016-08-11T19:13:35.026Z,21.61
2016-08-11T19:14:33.854Z,21.52
2016-08-11T19:15:34.567Z,21.56
2016-08-11T19:16:33.866Z,21.61
2016-08-11T19:17:33.971Z,21.61
2016-08-11T19:18:33.171Z,21.61
2016-08-11T19:19:34.597Z,21.61
2016-08-11T19:20:34.285Z,21.62
2016-08-11T19:21:33.904Z,21.54
2016-08-11T19:22:34.098Z,21.61
2016-08-11T19:23:35.250Z,21.54
2016-08-11T19:24:33.204Z,21.65
2016-08-11T19:25:33.927Z,21.67
2016-08-11T19:26:34.623Z,21.68
2016-08-11T19:27:34.682Z,21.59
2016-08-11T19:28:33.934Z,21.65
2016-08-11T19:29:33.948Z,21.62
2016-08-11T19:30:33.943Z,21.67
2016-08-11T19:31:33.244Z,21.62
2016-08-11T19:32:33.958Z,21.62
2016-08-11T19:33:34.669Z,21.65
2016-08-11T19:34:34.672Z,21.61
2016-08-11T19:35:33.268Z,21.62
2016-08-11T19:36:33.282Z,21.62
2016-08-11T19:37:34.990Z,21.67
2016-08-11T19:38:34.704Z,21.61
2016-08-11T19:39:33.992Z,21.65
2016-08-11T19:40:34.000Z,21.58
2016-08-11T19:41:34.025Z,21.58
2016-08-11T19:42:34.019Z,21.61
2016-08-11T19:43:34.019Z,21.61
2016-08-11T19:44:34.729Z,21.65